• location
  • image
Airport

AP V2 EN

 

 

Click here to view short presentation ->

Today

Thursday, 18 December 2014

Weather Forecast

Siauliai 1 °C
   

Aviation Weather Forecast

[source: ADDS]
METAR
EYSA 180250Z 21010KT 9000 -SHRA BKN005 BKN007CB 01/01 Q1003 R14L/2///95 R14R/2///95 =
TAF
TAF EYSA 180200Z 1803/1812 23010KT 7000 BKN005 TEMPO 1803/1806 2000 BR BECMG 1808/1809 BKN010 =
SR / SS: 06:49 / 14:00 UTC (EYSA 2014-12-18)

Who's Online

We have 1 guest online

tic logo en